createdAt,value
2019-05-19T00:00:25.286Z,21.90
2019-05-19T00:02:54.913Z,22.00
2019-05-19T00:05:24.322Z,22.00
2019-05-19T00:07:53.764Z,22.10
2019-05-19T00:10:23.144Z,22.10
2019-05-19T00:12:52.680Z,22.00
2019-05-19T00:15:22.208Z,21.90
2019-05-19T00:17:51.646Z,21.90
2019-05-19T00:20:20.882Z,21.90
2019-05-19T00:22:50.234Z,21.80
2019-05-19T00:25:20.464Z,21.70
2019-05-19T00:27:53.987Z,21.60
2019-05-19T00:30:23.283Z,21.70
2019-05-19T00:32:52.783Z,21.60
2019-05-19T00:35:22.250Z,21.60
2019-05-19T00:37:51.671Z,21.60
2019-05-19T00:40:20.923Z,21.50
2019-05-19T00:42:50.548Z,21.60
2019-05-19T00:45:20.275Z,21.40
2019-05-19T00:47:49.674Z,21.40
2019-05-19T00:50:19.359Z,21.40
2019-05-19T00:52:49.022Z,21.50
2019-05-19T00:55:18.612Z,21.50
2019-05-19T00:57:47.964Z,21.50
2019-05-19T01:00:17.485Z,21.50
2019-05-19T01:02:47.169Z,21.40
2019-05-19T01:05:16.738Z,21.20
2019-05-19T01:07:46.543Z,21.30
2019-05-19T01:10:16.042Z,21.20
2019-05-19T01:12:45.597Z,21.00
2019-05-19T01:15:15.523Z,20.90
2019-05-19T01:17:44.686Z,20.80
2019-05-19T01:20:14.978Z,20.60
2019-05-19T01:22:44.445Z,20.60
2019-05-19T01:25:13.844Z,20.50
2019-05-19T01:27:42.863Z,20.50
2019-05-19T01:30:13.798Z,20.50
2019-05-19T01:32:43.142Z,20.50
2019-05-19T01:35:12.449Z,20.50
2019-05-19T01:37:41.847Z,20.50
2019-05-19T01:40:12.298Z,20.40
2019-05-19T01:42:41.880Z,20.40
2019-05-19T01:45:11.625Z,20.40
2019-05-19T01:47:41.081Z,20.40
2019-05-19T01:50:18.948Z,20.30
2019-05-19T01:52:43.035Z,20.30
2019-05-19T01:55:12.875Z,20.40
2019-05-19T01:57:42.004Z,20.30
2019-05-19T02:00:11.548Z,20.30
2019-05-19T02:02:41.093Z,20.20
2019-05-19T02:05:10.663Z,20.30
2019-05-19T02:07:40.643Z,20.20
2019-05-19T02:10:10.717Z,20.10
2019-05-19T02:12:40.113Z,20.00
2019-05-19T02:15:09.458Z,19.90
2019-05-19T02:17:39.069Z,19.80
2019-05-19T02:20:08.793Z,19.80
2019-05-19T02:22:38.211Z,19.80
2019-05-19T02:25:08.956Z,19.70
2019-05-19T02:27:38.603Z,19.80
2019-05-19T02:30:08.331Z,19.70
2019-05-19T02:32:39.325Z,19.60
2019-05-19T02:35:08.833Z,19.50
2019-05-19T02:37:38.397Z,19.30
2019-05-19T02:40:08.705Z,19.20
2019-05-19T02:42:38.925Z,19.10
2019-05-19T02:45:08.444Z,19.10
2019-05-19T02:47:38.628Z,19.10
2019-05-19T02:50:08.142Z,19.10
2019-05-19T02:52:38.169Z,19.10
2019-05-19T02:55:07.773Z,19.10
2019-05-19T02:57:37.344Z,19.00
2019-05-19T03:00:07.892Z,19.00
2019-05-19T03:02:37.194Z,18.90
2019-05-19T03:05:06.398Z,18.80
2019-05-19T03:07:44.504Z,18.60
2019-05-19T03:10:14.416Z,18.60
2019-05-19T03:12:44.027Z,18.50
2019-05-19T03:15:13.395Z,18.50
2019-05-19T03:17:43.240Z,18.40
2019-05-19T03:20:13.010Z,18.40
2019-05-19T03:22:42.158Z,18.40
2019-05-19T03:25:11.797Z,18.40
2019-05-19T03:27:41.402Z,18.40
2019-05-19T03:30:14.958Z,18.30
2019-05-19T03:32:44.769Z,18.30
2019-05-19T03:35:14.163Z,18.30
2019-05-19T03:37:43.575Z,18.20
2019-05-19T03:40:18.409Z,18.20
2019-05-19T03:42:52.219Z,18.10
2019-05-19T03:45:21.775Z,18.00
2019-05-19T03:47:51.695Z,17.90
2019-05-19T03:50:21.086Z,17.80
2019-05-19T03:52:50.571Z,17.70
2019-05-19T03:55:20.067Z,17.60
2019-05-19T03:57:50.430Z,17.40
2019-05-19T04:00:19.811Z,17.40
2019-05-19T04:02:49.372Z,17.30
2019-05-19T04:05:18.958Z,17.30
2019-05-19T04:07:48.473Z,17.20
2019-05-19T04:10:17.873Z,17.20
2019-05-19T04:12:47.451Z,17.10
2019-05-19T04:15:17.055Z,17.10
2019-05-19T04:17:46.634Z,17.00
2019-05-19T04:20:15.964Z,16.90
2019-05-19T04:22:45.767Z,16.90
2019-05-19T04:25:14.987Z,16.90
2019-05-19T04:27:44.617Z,16.90
2019-05-19T04:30:14.145Z,16.80
2019-05-19T04:32:43.145Z,16.70
2019-05-19T04:35:13.022Z,16.70
2019-05-19T04:37:42.648Z,16.70
2019-05-19T04:40:12.050Z,16.70
2019-05-19T04:42:41.318Z,16.60
2019-05-19T04:45:11.013Z,16.60
2019-05-19T04:47:40.515Z,16.60
2019-05-19T04:50:10.022Z,16.60
2019-05-19T04:52:39.708Z,16.60
2019-05-19T04:55:09.123Z,16.60
2019-05-19T04:57:38.750Z,16.50
2019-05-19T05:00:08.562Z,16.40
2019-05-19T05:02:38.252Z,16.50
2019-05-19T05:05:08.843Z,16.50
2019-05-19T05:07:38.109Z,16.50
2019-05-19T05:10:07.461Z,16.40
2019-05-19T05:12:36.651Z,16.40
2019-05-19T05:15:07.153Z,16.40
2019-05-19T05:17:36.411Z,16.30
2019-05-19T05:20:06.564Z,16.30
2019-05-19T05:22:35.913Z,16.30
2019-05-19T05:25:06.431Z,16.20
2019-05-19T05:27:35.926Z,16.20
2019-05-19T05:30:05.664Z,16.20
2019-05-19T05:32:35.177Z,16.20
2019-05-19T05:35:04.899Z,16.20
2019-05-19T05:37:34.415Z,16.20
2019-05-19T05:40:03.987Z,16.20
2019-05-19T05:42:33.471Z,16.20
2019-05-19T05:45:02.963Z,16.10
2019-05-19T05:47:32.768Z,16.10
2019-05-19T05:50:02.114Z,16.00
2019-05-19T05:52:38.671Z,15.90
2019-05-19T05:55:02.031Z,15.90
2019-05-19T05:57:31.309Z,15.90
2019-05-19T06:00:00.690Z,15.80
2019-05-19T06:02:30.041Z,15.80
2019-05-19T06:04:59.261Z,15.80
2019-05-19T06:07:28.613Z,15.80
2019-05-19T06:09:57.883Z,15.80
2019-05-19T06:12:27.472Z,15.80
2019-05-19T06:14:56.955Z,15.70
2019-05-19T06:17:25.991Z,15.70
2019-05-19T06:19:55.620Z,15.70
2019-05-19T06:22:24.879Z,15.70
2019-05-19T06:24:54.083Z,15.80
2019-05-19T06:27:23.628Z,15.80
2019-05-19T06:29:53.070Z,15.70
2019-05-19T06:32:26.490Z,15.70
2019-05-19T06:34:55.790Z,15.70
2019-05-19T06:37:25.146Z,15.60
2019-05-19T06:39:59.610Z,15.60
2019-05-19T06:42:29.255Z,15.50
2019-05-19T06:44:58.730Z,15.50
2019-05-19T06:47:28.229Z,15.50
2019-05-19T06:49:58.315Z,15.40
2019-05-19T06:52:27.719Z,15.40
2019-05-19T06:54:57.299Z,15.40
2019-05-19T06:57:26.741Z,15.40
2019-05-19T06:59:56.917Z,15.30
2019-05-19T07:02:26.190Z,15.30
2019-05-19T07:04:56.430Z,15.20
2019-05-19T07:07:25.765Z,15.20
2019-05-19T07:09:58.578Z,15.20
2019-05-19T07:12:25.337Z,15.20
2019-05-19T07:14:54.607Z,15.10
2019-05-19T07:17:23.849Z,15.10
2019-05-19T07:19:53.135Z,15.00
2019-05-19T07:22:23.399Z,15.00
2019-05-19T07:24:52.693Z,15.00
2019-05-19T07:27:22.166Z,15.00
2019-05-19T07:29:51.643Z,15.10
2019-05-19T07:32:21.929Z,15.20
2019-05-19T07:34:51.492Z,15.20
2019-05-19T07:37:20.873Z,15.20
2019-05-19T07:39:50.161Z,15.30
2019-05-19T07:42:19.619Z,15.30
2019-05-19T07:44:49.043Z,15.30
2019-05-19T07:47:18.343Z,15.30
2019-05-19T07:49:47.741Z,15.20
2019-05-19T07:52:17.023Z,15.20
2019-05-19T07:54:46.312Z,15.20
2019-05-19T07:57:15.696Z,15.30
2019-05-19T07:59:45.872Z,15.20
2019-05-19T08:02:15.124Z,15.20
2019-05-19T08:04:44.655Z,15.20
2019-05-19T08:07:13.522Z,15.20
2019-05-19T08:09:43.995Z,15.20
2019-05-19T08:12:13.410Z,15.20
2019-05-19T08:14:42.711Z,15.20
2019-05-19T08:17:12.495Z,15.20
2019-05-19T08:19:41.980Z,15.20
2019-05-19T08:22:11.440Z,15.20
2019-05-19T08:24:41.807Z,15.10
2019-05-19T08:27:11.465Z,15.10
2019-05-19T08:29:40.951Z,15.20
2019-05-19T08:32:10.418Z,15.20
2019-05-19T08:34:40.033Z,15.20
2019-05-19T08:37:10.450Z,15.20
2019-05-19T08:39:39.799Z,15.20
2019-05-19T08:42:09.313Z,15.20
2019-05-19T08:44:38.968Z,15.20
2019-05-19T08:47:08.821Z,15.20
2019-05-19T08:49:38.368Z,15.10
2019-05-19T08:52:07.780Z,15.10
2019-05-19T08:54:38.049Z,15.10
2019-05-19T08:57:07.122Z,15.10
2019-05-19T08:59:36.736Z,15.10
2019-05-19T09:02:06.259Z,15.20
2019-05-19T09:04:35.617Z,15.20
2019-05-19T09:07:05.020Z,15.10
2019-05-19T09:09:34.636Z,15.20
2019-05-19T09:12:04.959Z,15.20
2019-05-19T09:14:35.208Z,15.20
2019-05-19T09:17:04.620Z,15.20
2019-05-19T09:19:34.091Z,15.20
2019-05-19T09:22:03.660Z,15.20
2019-05-19T09:24:33.033Z,15.20
2019-05-19T09:27:02.815Z,15.20
2019-05-19T09:29:33.431Z,15.20
2019-05-19T09:32:03.518Z,15.10
2019-05-19T09:34:32.947Z,15.10
2019-05-19T09:37:02.723Z,15.10
2019-05-19T09:39:32.020Z,15.10
2019-05-19T09:42:01.784Z,15.10
2019-05-19T09:44:31.000Z,15.10
2019-05-19T09:47:01.906Z,15.10
2019-05-19T09:49:32.249Z,15.10
2019-05-19T09:52:02.237Z,15.00
2019-05-19T09:54:45.272Z,15.00
2019-05-19T09:57:09.702Z,15.00
2019-05-19T09:59:39.068Z,15.00
2019-05-19T10:02:10.240Z,14.80
2019-05-19T10:04:39.683Z,14.80
2019-05-19T10:07:09.517Z,14.80
2019-05-19T10:09:53.062Z,14.80
2019-05-19T10:12:22.558Z,14.80
2019-05-19T10:14:51.991Z,14.80
2019-05-19T10:17:21.568Z,14.70
2019-05-19T10:19:51.252Z,14.70
2019-05-19T10:22:20.684Z,14.70
2019-05-19T10:25:10.108Z,14.70
2019-05-19T10:27:21.617Z,14.60
2019-05-19T10:29:49.604Z,14.60
2019-05-19T10:32:19.247Z,14.50
2019-05-19T10:34:48.612Z,14.50
2019-05-19T10:37:18.074Z,14.50
2019-05-19T10:39:47.655Z,14.50
2019-05-19T10:42:17.052Z,14.40
2019-05-19T10:44:46.621Z,14.40
2019-05-19T10:47:16.250Z,14.40
2019-05-19T10:49:45.490Z,14.40
2019-05-19T10:52:15.015Z,14.40
2019-05-19T10:54:44.511Z,14.30
2019-05-19T10:57:13.858Z,14.40
2019-05-19T10:59:43.251Z,14.30
2019-05-19T11:02:12.538Z,14.30
2019-05-19T11:04:41.829Z,14.30
2019-05-19T11:07:11.110Z,14.30
2019-05-19T11:09:40.267Z,14.30
2019-05-19T11:12:09.911Z,14.10
2019-05-19T11:14:39.409Z,14.10
2019-05-19T11:17:08.810Z,14.00
2019-05-19T11:19:38.459Z,13.90
2019-05-19T11:22:07.944Z,13.90
2019-05-19T11:24:37.216Z,13.90
2019-05-19T11:27:06.837Z,13.90
2019-05-19T11:29:36.439Z,13.90
2019-05-19T11:32:06.008Z,13.80
2019-05-19T11:34:35.203Z,13.80
2019-05-19T11:37:07.181Z,13.70
2019-05-19T11:39:34.339Z,13.80
2019-05-19T11:42:03.668Z,13.70
2019-05-19T11:44:33.242Z,13.70
2019-05-19T11:47:02.919Z,13.80
2019-05-19T11:49:34.068Z,13.70
2019-05-19T11:52:03.541Z,13.70
2019-05-19T11:54:33.046Z,13.70
2019-05-19T11:57:02.329Z,13.70
2019-05-19T11:59:32.725Z,13.50
2019-05-19T12:02:02.006Z,13.50
2019-05-19T12:04:31.535Z,13.50
2019-05-19T12:07:00.645Z,13.40
2019-05-19T12:09:30.126Z,13.40
2019-05-19T12:11:59.744Z,13.40
2019-05-19T12:14:29.370Z,13.20
2019-05-19T12:16:58.970Z,13.10
2019-05-19T12:19:28.443Z,13.10
2019-05-19T12:21:58.473Z,13.10
2019-05-19T12:24:27.174Z,13.10
2019-05-19T12:26:56.762Z,13.10
2019-05-19T12:29:26.208Z,13.10
2019-05-19T12:31:55.741Z,13.00
2019-05-19T12:34:24.909Z,13.10
2019-05-19T12:36:54.294Z,13.10
2019-05-19T12:39:23.554Z,13.10
2019-05-19T12:41:52.740Z,13.00
2019-05-19T12:44:22.327Z,13.00
2019-05-19T12:46:51.596Z,13.00
2019-05-19T12:49:20.913Z,13.00
2019-05-19T12:51:50.667Z,13.00
2019-05-19T12:54:20.045Z,13.00
2019-05-19T12:56:49.443Z,13.00
2019-05-19T12:59:18.903Z,13.10
2019-05-19T13:01:48.550Z,13.10
2019-05-19T13:04:18.138Z,13.10
2019-05-19T13:06:47.883Z,13.10
2019-05-19T13:09:17.413Z,13.10
2019-05-19T13:11:46.645Z,13.10
2019-05-19T13:14:15.709Z,13.10
2019-05-19T13:16:44.955Z,13.20
2019-05-19T13:19:14.235Z,13.30
2019-05-19T13:21:43.674Z,13.40
2019-05-19T13:24:13.081Z,13.40
2019-05-19T13:26:55.471Z,13.40
2019-05-19T13:29:12.573Z,13.50
2019-05-19T13:31:41.999Z,13.50
2019-05-19T13:34:11.584Z,13.50
2019-05-19T13:36:40.916Z,13.50
2019-05-19T13:39:10.078Z,13.50
2019-05-19T13:41:39.627Z,13.50
2019-05-19T13:44:08.981Z,13.60
2019-05-19T13:46:38.606Z,13.60
2019-05-19T13:49:08.917Z,13.80
2019-05-19T13:51:38.032Z,13.80
2019-05-19T13:54:08.152Z,13.90
2019-05-19T13:56:37.767Z,14.00
2019-05-19T13:59:07.439Z,14.00
2019-05-19T14:01:36.801Z,14.10
2019-05-19T14:04:06.144Z,14.20
2019-05-19T14:06:35.633Z,14.30
2019-05-19T14:09:05.427Z,14.50
2019-05-19T14:11:34.763Z,14.70
2019-05-19T14:14:05.137Z,14.90
2019-05-19T14:16:34.555Z,14.90
2019-05-19T14:19:03.945Z,15.00
2019-05-19T14:21:33.556Z,15.20
2019-05-19T14:24:03.744Z,15.40
2019-05-19T14:26:33.243Z,15.60
2019-05-19T14:29:04.734Z,16.00
2019-05-19T14:31:34.123Z,16.00
2019-05-19T14:34:03.401Z,16.20
2019-05-19T14:36:32.829Z,16.40
2019-05-19T14:39:05.514Z,16.70
2019-05-19T14:41:33.675Z,16.90
2019-05-19T14:44:02.218Z,16.90
2019-05-19T14:46:31.561Z,17.00
2019-05-19T14:49:00.834Z,17.20
2019-05-19T14:51:30.499Z,17.40
2019-05-19T14:53:59.979Z,17.60
2019-05-19T14:56:29.858Z,17.70
2019-05-19T14:58:59.579Z,18.00
2019-05-19T15:01:28.902Z,18.00
2019-05-19T15:03:58.189Z,18.30
2019-05-19T15:06:27.625Z,18.40
2019-05-19T15:08:56.987Z,18.70
2019-05-19T15:11:26.856Z,18.80
2019-05-19T15:13:56.372Z,18.80
2019-05-19T15:16:25.746Z,18.90
2019-05-19T15:18:54.887Z,19.00
2019-05-19T15:21:24.082Z,19.10
2019-05-19T15:23:53.409Z,19.30
2019-05-19T15:26:23.189Z,19.30
2019-05-19T15:28:52.718Z,19.60
2019-05-19T15:31:22.346Z,19.70
2019-05-19T15:33:51.782Z,19.90
2019-05-19T15:36:21.280Z,20.10
2019-05-19T15:38:50.763Z,20.20
2019-05-19T15:41:20.042Z,20.10
2019-05-19T15:43:49.447Z,20.10
2019-05-19T15:46:18.991Z,20.10
2019-05-19T15:48:48.739Z,20.20
2019-05-19T15:51:28.152Z,20.30
2019-05-19T15:53:47.948Z,20.20
2019-05-19T15:56:17.261Z,20.30
2019-05-19T15:58:46.831Z,20.40
2019-05-19T16:01:16.379Z,20.30
2019-05-19T16:03:45.789Z,20.20
2019-05-19T16:06:15.324Z,20.40
2019-05-19T16:08:44.723Z,20.40
2019-05-19T16:11:14.209Z,20.50
2019-05-19T16:13:43.839Z,20.70
2019-05-19T16:16:13.319Z,20.80
2019-05-19T16:18:42.665Z,20.70
2019-05-19T16:21:11.632Z,20.80
2019-05-19T16:23:41.051Z,20.90
2019-05-19T16:26:10.595Z,21.00
2019-05-19T16:28:39.818Z,21.10
2019-05-19T16:31:09.085Z,21.20
2019-05-19T16:33:38.328Z,21.20
2019-05-19T16:36:08.706Z,21.50
2019-05-19T16:38:38.284Z,21.50
2019-05-19T16:41:07.843Z,21.80
2019-05-19T16:43:37.287Z,22.00
2019-05-19T16:46:06.774Z,22.30
2019-05-19T16:48:36.291Z,22.30
2019-05-19T16:51:05.767Z,22.40
2019-05-19T16:53:35.346Z,22.60
2019-05-19T16:56:04.652Z,22.70
2019-05-19T16:58:44.944Z,22.90
2019-05-19T17:01:04.461Z,23.10
2019-05-19T17:03:34.652Z,23.20
2019-05-19T17:06:03.930Z,23.50
2019-05-19T17:08:33.150Z,23.60
2019-05-19T17:11:16.344Z,25.00
2019-05-19T17:13:33.221Z,25.00
2019-05-19T17:16:02.577Z,24.80
2019-05-19T17:18:32.398Z,24.80
2019-05-19T17:21:01.942Z,24.80
2019-05-19T17:23:33.163Z,33.10
2019-05-19T17:26:02.572Z,33.10
2019-05-19T17:28:32.082Z,38.20
2019-05-19T17:31:01.854Z,41.30
2019-05-19T17:33:31.077Z,43.60
2019-05-19T17:36:00.219Z,45.50
2019-05-19T17:38:29.568Z,47.00
2019-05-19T17:40:59.305Z,47.90
2019-05-19T17:43:28.616Z,48.00
2019-05-19T17:45:58.693Z,49.10
2019-05-19T17:48:29.577Z,49.00
2019-05-19T17:50:59.077Z,50.10
2019-05-19T17:53:28.618Z,50.10
2019-05-19T17:55:57.845Z,50.70
2019-05-19T17:58:27.998Z,53.00
2019-05-19T18:00:57.780Z,52.90
2019-05-19T18:03:27.745Z,51.90
2019-05-19T18:05:56.913Z,51.30
2019-05-19T18:08:26.347Z,51.50
2019-05-19T18:10:55.583Z,52.30
2019-05-19T18:13:24.966Z,52.30
2019-05-19T18:15:54.428Z,51.90
2019-05-19T18:18:23.796Z,52.40
2019-05-19T18:20:53.347Z,51.90
2019-05-19T18:23:23.912Z,52.10
2019-05-19T18:25:53.281Z,52.50
2019-05-19T18:28:22.862Z,52.50
2019-05-19T18:30:52.102Z,51.70
2019-05-19T18:33:21.615Z,51.10
2019-05-19T18:35:51.437Z,50.10
2019-05-19T18:38:20.864Z,49.50
2019-05-19T18:40:51.018Z,46.20
2019-05-19T18:43:20.641Z,46.20
2019-05-19T18:45:50.116Z,42.80
2019-05-19T18:48:19.657Z,40.20
2019-05-19T18:50:48.840Z,37.90
2019-05-19T18:53:18.235Z,36.30
2019-05-19T18:55:47.394Z,35.20
2019-05-19T18:58:16.782Z,34.00
2019-05-19T19:00:46.260Z,33.20
2019-05-19T19:03:16.791Z,33.00
2019-05-19T19:05:46.727Z,32.70
2019-05-19T19:08:16.272Z,32.30
2019-05-19T19:10:45.537Z,31.70
2019-05-19T19:13:14.847Z,31.50
2019-05-19T19:15:44.373Z,31.00
2019-05-19T19:18:14.380Z,30.60
2019-05-19T19:20:43.918Z,30.60
2019-05-19T19:23:13.083Z,30.70
2019-05-19T19:25:42.754Z,30.50
2019-05-19T19:28:12.310Z,29.60
2019-05-19T19:30:41.854Z,29.20
2019-05-19T19:33:11.109Z,29.20
2019-05-19T19:35:40.434Z,29.30
2019-05-19T19:38:09.821Z,28.90
2019-05-19T19:40:39.130Z,28.50
2019-05-19T19:43:08.626Z,28.30
2019-05-19T19:45:38.225Z,28.60
2019-05-19T19:48:07.531Z,28.50
2019-05-19T19:50:37.209Z,28.30
2019-05-19T19:53:06.756Z,27.70
2019-05-19T19:55:36.404Z,27.60
2019-05-19T19:58:05.870Z,27.80
2019-05-19T20:00:41.123Z,28.00
2019-05-19T20:03:10.422Z,28.20
2019-05-19T20:05:39.950Z,27.90
2019-05-19T20:08:09.572Z,27.50
2019-05-19T20:10:38.914Z,27.10
2019-05-19T20:13:08.330Z,27.10
2019-05-19T20:15:38.022Z,27.00
2019-05-19T20:18:08.398Z,26.90
2019-05-19T20:20:38.154Z,26.90
2019-05-19T20:23:07.729Z,27.00
2019-05-19T20:25:37.570Z,26.50
2019-05-19T20:28:07.136Z,26.50
2019-05-19T20:30:36.880Z,26.30
2019-05-19T20:33:06.344Z,25.80
2019-05-19T20:35:35.873Z,25.50
2019-05-19T20:38:06.325Z,25.40
2019-05-19T20:40:36.642Z,25.40
2019-05-19T20:43:06.512Z,25.40
2019-05-19T20:45:36.629Z,25.30
2019-05-19T20:48:06.345Z,25.30
2019-05-19T20:50:35.481Z,24.90
2019-05-19T20:53:05.196Z,24.80
2019-05-19T20:55:34.581Z,24.90
2019-05-19T20:58:03.952Z,25.00
2019-05-19T21:00:33.558Z,25.20
2019-05-19T21:03:03.134Z,25.20
2019-05-19T21:05:32.772Z,25.20
2019-05-19T21:08:02.462Z,25.50
2019-05-19T21:10:32.020Z,25.60
2019-05-19T21:13:02.959Z,25.50
2019-05-19T21:15:32.419Z,25.50
2019-05-19T21:18:02.051Z,25.60
2019-05-19T21:20:32.668Z,25.50
2019-05-19T21:23:02.106Z,25.40
2019-05-19T21:25:32.375Z,25.40
2019-05-19T21:28:01.989Z,25.40
2019-05-19T21:30:38.850Z,25.30
2019-05-19T21:33:09.172Z,25.20
2019-05-19T21:35:38.607Z,25.20
2019-05-19T21:38:08.027Z,25.10
2019-05-19T21:40:37.417Z,25.00
2019-05-19T21:43:06.871Z,24.80
2019-05-19T21:45:36.576Z,24.80
2019-05-19T21:48:07.036Z,25.20
2019-05-19T21:50:36.205Z,25.20
2019-05-19T21:53:07.487Z,25.40
2019-05-19T21:55:36.898Z,25.40
2019-05-19T21:58:06.566Z,25.40
2019-05-19T22:00:36.228Z,25.30
2019-05-19T22:03:05.746Z,25.50
2019-05-19T22:05:35.112Z,25.50
2019-05-19T22:08:04.851Z,25.60
2019-05-19T22:10:34.907Z,25.70
2019-05-19T22:13:05.989Z,25.90
2019-05-19T22:15:35.357Z,25.90
2019-05-19T22:18:04.708Z,25.80
2019-05-19T22:20:34.192Z,25.80
2019-05-19T22:23:05.087Z,25.20
2019-05-19T22:25:34.344Z,25.20
2019-05-19T22:28:03.964Z,25.10
2019-05-19T22:30:33.240Z,24.80
2019-05-19T22:33:03.056Z,24.60
2019-05-19T22:35:32.032Z,24.60
2019-05-19T22:38:02.396Z,24.60
2019-05-19T22:40:31.676Z,24.60
2019-05-19T22:43:01.279Z,24.50
2019-05-19T22:45:30.602Z,24.50
2019-05-19T22:48:00.232Z,24.70
2019-05-19T22:50:29.432Z,24.80
2019-05-19T22:52:58.496Z,24.90
2019-05-19T22:55:27.926Z,24.80
2019-05-19T22:57:57.399Z,24.60
2019-05-19T23:00:26.556Z,24.50
2019-05-19T23:02:56.721Z,24.10
2019-05-19T23:05:26.293Z,24.10
2019-05-19T23:07:55.728Z,24.20
2019-05-19T23:10:24.992Z,24.30
2019-05-19T23:12:56.340Z,24.30
2019-05-19T23:15:25.732Z,24.30
2019-05-19T23:17:55.201Z,24.30
2019-05-19T23:20:24.718Z,24.20
2019-05-19T23:22:53.978Z,24.10
2019-05-19T23:25:23.390Z,24.10
2019-05-19T23:27:53.085Z,24.00
2019-05-19T23:30:22.686Z,23.90
2019-05-19T23:32:52.175Z,23.80
2019-05-19T23:35:21.836Z,23.80
2019-05-19T23:37:50.998Z,23.90
2019-05-19T23:40:20.175Z,24.10
2019-05-19T23:42:49.757Z,24.20
2019-05-19T23:45:19.024Z,24.00
2019-05-19T23:47:48.223Z,24.00
2019-05-19T23:50:17.662Z,23.90
2019-05-19T23:52:46.440Z,24.00
2019-05-19T23:55:15.902Z,23.90
2019-05-19T23:57:45.538Z,23.80
